Time;durP1;ratioP1;P1;durP2;ratioP2;P2;SDS_P1;SDS_P2;PMS_P1;PMS_P2;Temp;Humidity;BMP_temperature;BMP_pressure;BME280_temperature;BME280_humidity;BME280_pressure;Samples;Min_cycle;Max_cycle;Signal;HPM_P1;HPM_P2
2023/02/08 00:01:16;;;;;;;18.80;14.07;;;;;;;6.06;48.05;100164.69;5092036;28;20056;-46
2023/02/08 00:03:44;;;;;;;21.23;14.15;;;;;;;5.98;47.73;100165.34;5091996;28;20039;-46
2023/02/08 00:06:11;;;;;;;18.67;14.32;;;;;;;5.89;48.10;100162.69;5090644;28;20016;-45
2023/02/08 00:08:40;;;;;;;19.50;13.68;;;;;;;5.88;48.15;100161.06;5091987;28;20024;-46
2023/02/08 00:11:11;;;;;;;18.88;13.52;;;;;;;5.85;48.56;100153.50;5091955;28;20042;-46
2023/02/08 00:13:39;;;;;;;20.02;14.05;;;;;;;5.77;48.51;100146.34;5090685;28;20024;-46
2023/02/08 00:16:07;;;;;;;19.35;14.02;;;;;;;5.76;48.01;100144.72;5091934;28;20032;-46
2023/02/08 00:18:33;;;;;;;18.85;13.55;;;;;;;5.78;48.46;100146.22;5093268;28;20107;-46
2023/02/08 00:21:09;;;;;;;20.67;13.27;;;;;;;5.76;48.18;100147.31;5096066;28;20514;-45
2023/02/08 00:23:36;;;;;;;;;;;;;;;5.75;47.96;100141.25;5095206;28;20039;-46
2023/02/08 00:26:03;;;;;;;19.10;13.20;;;;;;;5.64;48.17;100140.56;5095975;28;20452;-46
2023/02/08 00:28:30;;;;;;;21.75;14.30;;;;;;;5.42;48.07;100133.78;5095598;28;20052;-46
2023/02/08 00:30:57;;;;;;;23.95;17.83;;;;;;;5.19;48.72;100141.72;5095908;28;20614;-45
2023/02/08 00:33:23;;;;;;;25.40;19.02;;;;;;;4.57;49.50;100143.44;5094580;28;20028;-46
2023/02/08 00:36:03;;;;;;;29.80;19.27;;;;;;;3.85;51.89;100144.00;5095795;28;20153;-46
2023/02/08 00:38:31;;;;;;;27.17;15.80;;;;;;;3.49;52.08;100144.16;5094442;28;20039;-45
2023/02/08 00:40:58;;;;;;;29.25;19.95;;;;;;;3.11;53.13;100140.13;5095667;28;20104;-45
2023/02/08 00:43:24;;;;;;;26.63;17.58;;;;;;;2.95;53.95;100143.03;5095724;28;20100;-45
2023/02/08 00:45:55;;;;;;;27.05;18.83;;;;;;;2.75;54.44;100146.31;5094337;28;20096;-45
2023/02/08 00:48:22;;;;;;;32.88;17.85;;;;;;;2.73;54.75;100138.63;5095712;28;20093;-46
2023/02/08 00:51:05;;;;;;;30.63;18.40;;;;;;;2.84;55.01;100148.22;5095488;28;20016;-45
2023/02/08 00:53:37;;;;;;;23.45;16.85;;;;;;;2.69;55.10;100137.22;5095759;28;20028;-45
2023/02/08 00:56:05;;;;;;;24.83;16.60;;;;;;;2.46;56.38;100136.34;5094110;28;20035;-45
2023/02/08 00:58:33;;;;;;;25.05;17.20;;;;;;;2.22;57.17;100143.31;5095423;28;20039;-45
2023/02/08 01:01:01;;;;;;;24.10;16.38;;;;;;;2.28;57.01;100137.69;5095219;28;20032;-46
2023/02/08 01:03:44;;;;;;;26.55;15.82;;;;;;;2.44;57.21;100140.78;5093927;28;20516;-45
2023/02/08 01:06:32;;;;;;;28.40;18.27;;;;;;;2.70;56.73;100148.44;5095223;28;20046;-46
2023/02/08 01:09:02;;;;;;;27.40;18.25;;;;;;;2.68;56.46;100145.94;5093814;28;20031;-47
2023/02/08 01:11:47;;;;;;;22.80;16.10;;;;;;;2.60;56.26;100150.88;5093794;28;20044;-47
2023/02/08 01:14:37;;;;;;;25.65;19.83;;;;;;;2.33;57.20;100146.75;5093782;28;20016;-47
2023/02/08 01:17:10;;;;;;;30.00;19.15;;;;;;;2.04;57.31;100151.44;5094979;28;20031;-45
2023/02/08 01:19:52;;;;;;;28.45;18.80;;;;;;;1.98;58.50;100157.88;5093594;28;20031;-47
2023/02/08 01:22:33;;;;;;;27.35;19.45;;;;;;;1.94;59.77;100153.03;5094896;28;20413;-47
2023/02/08 01:25:16;;;;;;;27.30;18.30;;;;;;;1.86;59.44;100155.34;5093583;28;20029;-47
2023/02/08 01:28:01;;;;;;;27.55;19.50;;;;;;;1.89;59.22;100155.09;5093362;28;20024;-47
2023/02/08 01:30:41;;;;;;;23.27;16.02;;;;;;;1.90;59.11;100160.19;5094301;28;20551;-47
2023/02/08 01:33:25;;;;;;;25.83;17.35;;;;;;;1.86;58.78;100155.34;5095028;28;20016;-47
2023/02/08 01:36:10;;;;;;;26.35;18.50;;;;;;;1.75;59.30;100161.25;5094601;28;20027;-47
2023/02/08 01:38:44;;;;;;;26.25;15.20;;;;;;;1.77;59.16;100149.03;5094599;28;20518;-46
2023/02/08 01:41:45;;;;;;;24.17;15.38;;;;;;;1.61;60.08;100149.28;5093151;28;20444;-46
2023/02/08 01:44:17;;;;;;;23.35;16.30;;;;;;;1.61;60.60;100151.88;5094710;28;20090;-47
2023/02/08 01:46:54;;;;;;;22.35;14.57;;;;;;;1.67;59.99;100146.28;5093058;28;20382;-47
2023/02/08 01:49:48;;;;;;;25.25;17.75;;;;;;;1.63;60.09;100156.94;5093139;28;20464;-46
2023/02/08 01:52:19;;;;;;;27.15;18.83;;;;;;;1.61;61.07;100149.28;5094196;28;20028;-46
2023/02/08 01:55:15;;;;;;;24.05;15.55;;;;;;;1.65;61.18;100145.56;5094322;28;20039;-45
2023/02/08 01:57:43;;;;;;;22.17;15.30;;;;;;;1.64;60.17;100143.88;5094218;28;20032;-46
2023/02/08 02:00:21;;;;;;;24.33;16.30;;;;;;;1.37;60.35;100141.47;5092892;28;20021;-46
2023/02/08 02:02:52;;;;;;;21.67;14.90;;;;;;;1.30;60.97;100148.78;5094429;28;20024;-45
2023/02/08 02:05:23;;;;;;;21.20;15.13;;;;;;;1.22;61.01;100152.84;5092819;28;20028;-45
2023/02/08 02:07:52;;;;;;;29.65;19.25;;;;;;;1.08;61.33;100138.25;5092948;28;20397;-45
2023/02/08 02:10:59;;;;;;;27.08;18.27;;;;;;;0.89;61.77;100133.50;5092674;28;20169;-45
2023/02/08 02:13:30;;;;;;;;;;;;;;;0.95;61.96;100133.91;5094351;28;20063;-47
2023/02/08 02:16:09;;;;;;;29.65;18.27;;;;;;;1.14;62.54;100130.09;5092533;28;19921;-47
2023/02/08 02:18:37;;;;;;;26.75;17.67;;;;;;;1.08;62.10;100125.34;5094131;28;20408;-46
2023/02/08 02:21:40;;;;;;;28.67;16.98;;;;;;;1.24;62.14;100125.94;5075403;28;20059;-46
2023/02/08 02:24:41;;;;;;;28.05;16.83;;;;;;;1.39;61.69;100122.31;5092442;28;20039;-45
2023/02/08 02:31:44;;;;;;;30.17;19.63;;;;;;;1.45;62.08;100128.81;5053467;28;20120;-46
2023/02/08 02:34:55;;;;;;;25.50;18.00;;;;;;;1.58;62.11;100123.63;5051968;28;20033;-47
2023/02/08 02:38:00;;;;;;;27.80;17.92;;;;;;;1.42;62.29;100129.03;5053263;28;20494;-47
2023/02/08 02:45:11;;;;;;;31.45;19.80;;;;;;;1.42;61.54;100134.19;5053453;28;20048;-46
2023/02/08 02:48:25;;;;;;;29.50;21.67;;;;;;;0.93;63.01;100138.38;5051465;28;20028;-46
2023/02/08 02:51:19;;;;;;;31.90;20.42;;;;;;;0.59;64.45;100138.00;5051656;28;20111;-46
2023/02/08 02:54:47;;;;;;;29.00;21.63;;;;;;;0.62;65.58;100141.31;5051937;28;20036;-47
2023/02/08 02:57:45;;;;;;;29.63;18.83;;;;;;;0.78;65.18;100136.78;5052860;28;20017;-46
2023/02/08 03:00:25;;;;;;;32.13;21.70;;;;;;;0.79;65.67;100141.88;5052702;28;20024;-46
2023/02/08 03:03:37;;;;;;;37.60;25.17;;;;;;;0.66;65.44;100143.59;5051514;28;20033;-46
2023/02/08 03:06:36;;;;;;;31.77;20.38;;;;;;;0.74;65.54;100138.75;5051343;28;20021;-46
2023/02/08 03:09:49;;;;;;;30.23;22.17;;;;;;;0.76;64.81;100147.22;5052694;28;20108;-46
2023/02/08 03:12:34;;;;;;;31.42;20.25;;;;;;;0.62;65.76;100136.16;5052507;28;20043;-47
2023/02/08 03:15:37;;;;;;;34.22;19.50;;;;;;;0.81;66.04;100139.19;5052576;28;20453;-46
2023/02/08 03:18:37;;;;;;;37.72;21.15;;;;;;;0.89;64.15;100143.84;5051153;28;20025;-46
2023/02/08 03:22:09;;;;;;;33.45;18.58;;;;;;;0.86;65.16;100147.44;5052269;28;20061;-47
2023/02/08 03:25:16;;;;;;;28.20;19.75;;;;;;;1.05;64.50;100147.06;5030051;28;20041;-47
2023/02/08 03:28:30;;;;;;;26.77;19.42;;;;;;;0.81;63.83;100154.69;5031216;28;20025;-46
2023/02/08 03:31:24;;;;;;;33.22;20.00;;;;;;;0.59;64.32;100155.25;4993938;28;20439;-46
2023/02/08 03:34:35;;;;;;;26.08;19.48;;;;;;;0.65;65.13;100165.19;5010204;28;20042;-47
2023/02/08 03:37:43;;;;;;;28.08;16.67;;;;;;;0.97;64.32;100160.50;5010275;28;20033;-47
2023/02/08 03:40:46;;;;;;;32.67;20.73;;;;;;;0.89;64.13;100162.75;5010217;28;20038;-47
2023/02/08 03:44:03;;;;;;;27.65;19.58;;;;;;;0.78;63.79;100163.44;4993669;28;20080;-47
2023/02/08 03:49:47;;;;;;;30.88;21.02;;;;;;;0.47;64.15;100169.81;5010222;28;20057;-46
2023/02/08 03:52:31;;;;;;;33.72;23.27;;;;;;;0.28;65.96;100167.59;4993487;28;20030;-47
2023/02/08 03:55:40;;;;;;;37.05;23.17;;;;;;;0.26;66.27;100160.84;4993553;28;20073;-47
2023/02/08 03:59:07;;;;;;;30.80;20.83;;;;;;;0.08;66.30;100166.25;5030066;28;20613;-47
2023/02/08 04:02:13;;;;;;;27.15;18.17;;;;;;;0.09;66.86;100161.91;5059983;28;20105;-47
2023/02/08 04:04:51;;;;;;;31.10;19.15;;;;;;;0.22;66.81;100161.97;5071725;28;20437;-47
2023/02/08 04:07:31;;;;;;;25.60;18.55;;;;;;;0.40;65.73;100158.19;5070343;28;20028;-47
2023/02/08 04:09:58;;;;;;;27.20;18.17;;;;;;;0.46;65.66;100160.38;5071767;28;20024;-46
2023/02/08 04:12:25;;;;;;;26.92;19.23;;;;;;;0.34;65.17;100154.28;5071747;28;20107;-46
2023/02/08 04:14:52;;;;;;;26.67;20.13;;;;;;;0.38;65.74;100160.03;5071779;28;20020;-45
2023/02/08 04:17:19;;;;;;;24.33;15.88;;;;;;;0.37;65.07;100166.16;5070449;28;20085;-45
2023/02/08 04:19:46;;;;;;;30.77;18.88;;;;;;;0.30;63.98;100165.72;5071618;28;20021;-45
2023/02/08 04:22:13;;;;;;;31.50;19.80;;;;;;;0.30;65.20;100157.13;5071591;28;20051;-46
2023/02/08 04:24:40;;;;;;;27.27;18.80;;;;;;;0.29;65.12;100158.91;5071639;28;20028;-45
2023/02/08 04:27:07;;;;;;;31.48;18.38;;;;;;;0.20;65.46;100164.63;5071437;28;20032;-45
2023/02/08 04:29:34;;;;;;;29.15;19.75;;;;;;;0.08;65.56;100162.81;5088075;28;20550;-45
2023/02/08 04:32:01;;;;;;;29.40;20.48;;;;;;;0.04;66.17;100163.94;5091740;28;20069;-45
2023/02/08 04:34:28;;;;;;;31.52;21.13;;;;;;;0.04;66.67;100159.63;5090389;28;20037;-45
2023/02/08 04:36:55;;;;;;;32.13;22.80;;;;;;;0.02;66.93;100161.47;5090356;28;20039;-46
2023/02/08 04:39:22;;;;;;;29.42;20.25;;;;;;;0.01;67.29;100161.56;5091614;28;20024;-45
2023/02/08 04:41:50;;;;;;;34.10;20.23;;;;;;;0.06;67.39;100168.09;5091576;28;20060;-46
2023/02/08 04:44:17;;;;;;;30.52;20.33;;;;;;;0.12;67.23;100162.56;5091627;28;20058;-46
2023/02/08 04:46:44;;;;;;;29.42;19.90;;;;;;;0.23;67.10;100161.88;5091549;28;20016;-46
2023/02/08 04:49:10;;;;;;;30.98;22.35;;;;;;;0.40;66.68;100153.03;5090265;28;20123;-46
2023/02/08 04:51:37;;;;;;;28.90;19.23;;;;;;;0.44;66.32;100151.09;5091544;28;20493;-45
2023/02/08 04:54:07;;;;;;;31.13;20.27;;;;;;;0.57;66.40;100154.53;5090212;28;20026;-46
2023/02/08 04:56:34;;;;;;;26.27;17.23;;;;;;;0.55;65.63;100159.78;5090215;28;20103;-46
2023/02/08 04:59:02;;;;;;;31.30;21.45;;;;;;;0.44;65.06;100164.81;5090200;28;20058;-45
2023/02/08 05:01:29;;;;;;;29.00;18.65;;;;;;;0.28;65.66;100157.25;5090177;28;20052;-45
2023/02/08 05:03:55;;;;;;;23.17;16.15;;;;;;;0.47;65.05;100158.66;5091737;28;20035;-46
2023/02/08 05:06:29;;;;;;;24.27;16.77;;;;;;;0.61;64.87;100157.75;5093900;28;20028;-46
2023/02/08 05:09:09;;;;;;;26.27;15.30;;;;;;;0.67;63.66;100149.59;5095178;28;20397;-47
2023/02/08 05:11:46;;;;;;;25.83;15.90;;;;;;;0.64;62.62;100152.38;5095110;28;20379;-47
2023/02/08 05:14:15;;;;;;;26.52;15.85;;;;;;;0.57;63.04;100152.78;5093796;28;20115;-47
2023/02/08 05:16:50;;;;;;;31.92;18.88;;;;;;;0.66;63.50;100153.09;5095049;28;20024;-46
2023/02/08 05:19:27;;;;;;;19.23;13.57;;;;;;;0.65;62.27;100154.88;5095083;28;20405;-47
2023/02/08 05:21:57;;;;;;;26.00;16.30;;;;;;;0.49;62.41;100149.88;5093313;28;20035;-47
2023/02/08 05:24:25;;;;;;;30.17;15.90;;;;;;;0.43;63.34;100144.28;5094998;28;20097;-47
2023/02/08 05:26:56;;;;;;;26.30;19.33;;;;;;;0.36;63.82;100149.84;5093449;28;20047;-46
2023/02/08 05:29:33;;;;;;;24.35;15.55;;;;;;;0.35;63.48;100142.19;5091227;28;20052;-47
2023/02/08 05:32:00;;;;;;;27.63;15.07;;;;;;;0.39;63.02;100147.03;5094763;28;20020;-46
2023/02/08 05:34:27;;;;;;;27.13;18.88;;;;;;;0.29;63.34;100142.59;5094708;28;20557;-46
2023/02/08 05:37:01;;;;;;;29.33;17.35;;;;;;;0.33;63.91;100150.03;5094589;28;20095;-47
2023/02/08 05:39:37;;;;;;;27.83;18.25;;;;;;;0.47;63.17;100141.38;5094684;28;20036;-48
2023/02/08 05:42:04;;;;;;;;;;;;;;;0.51;63.11;100140.25;5076781;28;20027;-46
2023/02/08 05:44:35;;;;;;;28.77;17.73;;;;;;;0.47;63.24;100132.81;5093237;28;19951;-46
2023/02/08 05:47:02;;;;;;;29.63;20.20;;;;;;;0.32;63.51;100134.63;5094391;28;20059;-46
2023/02/08 05:49:31;;;;;;;29.77;18.15;;;;;;;0.18;64.02;100133.78;5094386;28;20127;-46
2023/02/08 05:52:02;;;;;;;24.98;17.25;;;;;;;0.22;63.35;100139.53;5094267;28;20031;-46
2023/02/08 05:54:37;;;;;;;25.90;15.80;;;;;;;0.18;63.15;100135.50;5094363;28;20103;-47
2023/02/08 05:57:05;;;;;;;31.35;17.95;;;;;;;0.05;63.49;100129.47;5094252;28;20028;-46
2023/02/08 05:59:32;;;;;;;26.35;19.80;;;;;;;-0.08;64.03;100135.41;5092951;28;20020;-46
2023/02/08 06:01:59;;;;;;;29.95;20.42;;;;;;;-0.24;64.26;100140.69;5094253;28;20025;-46
2023/02/08 06:04:28;;;;;;;27.17;20.67;;;;;;;-0.54;64.73;100127.09;5092875;28;20398;-47
2023/02/08 06:06:56;;;;;;;29.10;20.38;;;;;;;-0.65;66.36;100144.03;5094032;28;20045;-46
2023/02/08 06:09:23;;;;;;;29.65;20.38;;;;;;;-0.73;66.48;100133.38;5094073;28;20530;-46
2023/02/08 06:11:50;;;;;;;33.13;19.60;;;;;;;-0.81;66.81;100138.97;5092709;28;20028;-46
2023/02/08 06:14:18;;;;;;;30.98;17.17;;;;;;;-0.63;66.72;100137.03;5093969;28;20399;-45
2023/02/08 06:16:45;;;;;;;32.53;16.75;;;;;;;-0.46;66.27;100140.38;5092576;28;20028;-45
2023/02/08 06:19:13;;;;;;;36.03;20.45;;;;;;;-0.32;66.40;100148.09;5093829;28;20027;-46
2023/02/08 06:21:41;;;;;;;30.58;17.67;;;;;;;-0.28;65.62;100149.56;5092465;28;20447;-45
2023/02/08 06:24:10;;;;;;;28.23;21.17;;;;;;;-0.24;65.75;100156.19;5093783;28;20112;-45
2023/02/08 06:26:37;;;;;;;34.50;22.73;;;;;;;-0.37;67.05;100152.69;5093693;28;20031;-46
2023/02/08 06:29:06;;;;;;;30.52;20.45;;;;;;;-0.37;66.98;100160.44;5091908;28;20448;-46
2023/02/08 06:31:32;;;;;;;33.92;21.73;;;;;;;-0.43;66.84;100155.66;5093607;28;20112;-45
2023/02/08 06:34:04;;;;;;;30.30;21.15;;;;;;;-0.50;67.48;100159.53;5092228;28;20031;-45
2023/02/08 06:36:36;;;;;;;35.97;23.10;;;;;;;-0.44;68.33;100161.75;5093480;28;20020;-46
2023/02/08 06:39:06;;;;;;;29.70;21.27;;;;;;;-0.47;67.19;100159.34;5093507;28;20020;-45
2023/02/08 06:41:37;;;;;;;40.00;23.35;;;;;;;-0.62;67.59;100159.34;5093414;28;20397;-46
2023/02/08 06:44:04;;;;;;;48.85;30.33;;;;;;;-0.69;68.02;100160.63;5092031;28;20138;-46
2023/02/08 06:46:32;;;;;;;35.97;23.38;;;;;;;-0.64;67.89;100160.38;5093620;28;20016;-45
2023/02/08 06:49:00;;;;;;;34.95;24.58;;;;;;;-0.49;68.77;100154.25;5093217;28;20386;-45
2023/02/08 06:51:46;;;;;;;33.40;22.30;;;;;;;-0.62;67.25;100161.91;5091880;28;20446;-46
2023/02/08 06:54:14;;;;;;;32.97;18.45;;;;;;;-0.75;67.83;100163.56;5091902;28;20035;-45
2023/02/08 06:56:43;;;;;;;29.42;19.90;;;;;;;-0.56;67.88;100163.31;5091799;28;20035;-47
2023/02/08 06:59:27;;;;;;;35.90;21.27;;;;;;;-0.50;67.56;100175.00;5093421;28;20028;-45
2023/02/08 07:02:00;;;;;;;31.10;20.33;;;;;;;-0.38;67.16;100171.69;5091619;28;20028;-45
2023/02/08 07:04:29;;;;;;;30.33;20.65;;;;;;;-0.35;67.21;100166.31;5093003;28;20028;-46
2023/02/08 07:06:55;;;;;;;32.58;21.65;;;;;;;-0.32;66.04;100173.03;5091666;28;20532;-46
2023/02/08 07:09:39;;;;;;;32.45;23.33;;;;;;;-0.38;66.16;100176.00;5091818;28;20031;-46
2023/02/08 07:12:12;;;;;;;36.20;25.00;;;;;;;-0.32;66.26;100173.03;5091543;28;20023;-46
2023/02/08 07:14:55;;;;;;;32.65;23.70;;;;;;;-0.23;66.10;100167.31;5092742;28;20569;-47
2023/02/08 07:17:22;;;;;;;30.98;16.60;;;;;;;0.21;66.49;100175.81;5091365;28;20020;-46
2023/02/08 07:19:49;;;;;;;28.48;18.60;;;;;;;0.77;65.23;100166.16;5091596;28;20046;-46
2023/02/08 07:22:17;;;;;;;30.70;17.98;;;;;;;1.43;64.42;100158.28;5092579;28;20393;-46
2023/02/08 07:24:44;;;;;;;32.03;21.63;;;;;;;1.59;61.84;100164.09;5091308;28;20111;-46
2023/02/08 07:27:22;;;;;;;30.15;19.67;;;;;;;1.30;61.79;100171.25;5090746;28;20544;-47
2023/02/08 07:30:07;;;;;;;35.35;21.77;;;;;;;1.17;62.34;100166.91;5087922;28;20044;-46
2023/02/08 07:32:36;;;;;;;33.80;18.95;;;;;;;1.30;62.64;100168.66;5091168;28;20044;-47
2023/02/08 07:35:03;;;;;;;35.08;19.52;;;;;;;1.75;61.97;100159.50;5092399;28;20016;-46
2023/02/08 07:37:31;;;;;;;33.60;20.73;;;;;;;2.57;61.02;100167.44;5092377;28;20112;-46
2023/02/08 07:39:58;;;;;;;33.70;22.58;;;;;;;2.95;57.34;100170.75;5092343;28;20024;-46
2023/02/08 07:42:26;;;;;;;31.73;19.75;;;;;;;2.80;57.40;100172.72;5092327;28;20482;-46
2023/02/08 07:45:03;;;;;;;29.55;17.95;;;;;;;3.07;57.02;100166.41;5092253;28;20043;-47
2023/02/08 07:47:45;;;;;;;29.02;18.67;;;;;;;3.20;55.52;100170.56;5092105;28;20069;-47
2023/02/08 07:50:12;;;;;;;33.15;22.23;;;;;;;3.07;55.44;100172.44;5092227;28;20020;-46
2023/02/08 07:52:44;;;;;;;40.17;23.15;;;;;;;2.97;55.84;100179.25;5092238;28;20496;-46
2023/02/08 07:55:15;;;;;;;38.45;23.50;;;;;;;2.97;55.42;100187.03;5092193;28;20016;-46
2023/02/08 07:57:48;;;;;;;28.50;20.15;;;;;;;3.28;55.36;100184.72;5092078;28;20028;-46
2023/02/08 08:00:17;;;;;;;36.95;25.10;;;;;;;3.82;54.15;100178.00;5090764;28;20031;-46
2023/02/08 08:02:49;;;;;;;28.42;21.20;;;;;;;4.28;54.23;100179.56;5092054;28;20032;-46
2023/02/08 08:05:15;;;;;;;31.35;22.17;;;;;;;4.86;52.61;100184.41;5091976;28;20054;-46
2023/02/08 08:07:43;;;;;;;41.65;22.55;;;;;;;4.92;51.98;100171.72;5090686;28;20180;-46
2023/02/08 08:10:10;;;;;;;38.33;23.42;;;;;;;4.89;51.03;100177.19;5091944;28;20019;-46
2023/02/08 08:12:37;;;;;;;33.30;20.98;;;;;;;5.11;51.11;100181.44;5092147;28;20034;-47
2023/02/08 08:15:23;;;;;;;36.17;23.45;;;;;;;5.30;50.62;100172.91;5091882;28;20020;-46
2023/02/08 08:18:01;;;;;;;33.07;23.00;;;;;;;5.50;49.76;100178.19;5091932;28;20067;-47
2023/02/08 08:20:29;;;;;;;32.05;23.13;;;;;;;5.50;49.84;100175.59;5091821;28;20025;-46
2023/02/08 08:22:56;;;;;;;31.10;21.75;;;;;;;5.70;50.32;100174.72;5090457;28;20031;-46
2023/02/08 08:25:23;;;;;;;34.70;21.70;;;;;;;6.30;48.13;100179.09;5090434;28;20040;-46
2023/02/08 08:27:50;;;;;;;29.92;21.88;;;;;;;6.91;46.68;100175.41;5091712;28;20020;-46
2023/02/08 08:30:17;;;;;;;34.30;22.05;;;;;;;7.68;45.08;100174.34;5091442;28;20135;-46
2023/02/08 08:32:44;;;;;;;36.50;22.45;;;;;;;8.01;44.05;100174.75;5090440;28;20051;-46
2023/02/08 08:35:11;;;;;;;39.85;23.23;;;;;;;8.15;44.07;100171.63;5090348;28;20497;-46
2023/02/08 08:37:38;;;;;;;31.83;21.23;;;;;;;8.46;44.25;100180.94;5091718;28;20114;-46
2023/02/08 08:40:08;;;;;;;27.48;20.00;;;;;;;8.92;41.98;100185.06;5092590;28;20024;-47
2023/02/08 08:42:38;;;;;;;36.92;23.30;;;;;;;9.31;41.17;100184.66;5094409;28;20501;-48
2023/02/08 08:45:06;;;;;;;54.50;24.00;;;;;;;9.05;41.19;100189.09;5095601;28;20031;-46
2023/02/08 08:47:33;;;;;;;45.65;21.95;;;;;;;9.23;41.91;100174.13;5095594;28;20016;-47
2023/02/08 08:50:00;;;;;;;43.20;23.20;;;;;;;9.50;40.58;100180.19;5095604;28;20095;-47
2023/02/08 08:52:27;;;;;;;42.47;25.10;;;;;;;9.78;40.51;100178.19;5095865;28;20028;-47
2023/02/08 08:54:57;;;;;;;37.08;23.33;;;;;;;10.07;39.94;100177.78;5095441;28;20016;-46
2023/02/08 08:57:25;;;;;;;31.55;21.98;;;;;;;10.24;39.77;100173.41;5094450;28;20036;-47
2023/02/08 08:59:52;;;;;;;63.72;22.80;;;;;;;10.46;39.92;100181.66;5095414;28;20016;-47
2023/02/08 09:02:19;;;;;;;38.83;22.15;;;;;;;11.17;38.14;100175.72;5094036;28;20046;-47
2023/02/08 09:04:47;;;;;;;33.08;22.70;;;;;;;12.04;36.49;100174.94;5077237;28;20048;-47
2023/02/08 09:07:14;;;;;;;34.50;20.85;;;;;;;12.46;36.78;100178.97;5095178;28;20035;-47
2023/02/08 09:09:46;;;;;;;43.45;21.70;;;;;;;13.34;36.33;100171.44;5095166;28;20027;-47
2023/02/08 09:12:14;;;;;;;43.20;22.45;;;;;;;14.71;34.83;100173.44;5093837;28;20562;-47
2023/02/08 09:14:43;;;;;;;35.40;21.63;;;;;;;15.82;33.58;100167.41;5093849;28;20398;-47
2023/02/08 09:17:13;;;;;;;29.85;21.48;;;;;;;16.31;31.69;100166.31;5095062;28;20513;-47
2023/02/08 09:19:52;;;;;;;31.90;22.45;;;;;;;16.28;31.55;100169.34;5076827;28;20020;-45
2023/02/08 09:22:36;;;;;;;35.40;22.67;;;;;;;16.15;31.21;100165.66;5093561;28;20032;-45
2023/02/08 09:25:22;;;;;;;30.92;21.65;;;;;;;15.71;30.85;100161.63;5076702;28;20509;-46
2023/02/08 09:27:48;;;;;;;32.38;22.15;;;;;;;14.43;31.68;100170.69;5076967;28;20035;-45
2023/02/08 09:30:14;;;;;;;33.95;23.90;;;;;;;14.50;32.78;100167.09;5092538;28;20405;-45
2023/02/08 09:33:10;;;;;;;39.92;23.05;;;;;;;14.81;31.89;100165.16;5094596;28;20039;-46
2023/02/08 09:35:37;;;;;;;23.92;21.33;;;;;;;15.43;31.33;100171.47;5094726;28;20117;-45
2023/02/08 09:38:04;;;;;;;33.30;21.48;;;;;;;16.26;29.78;100168.75;5094739;28;20035;-45
2023/02/08 09:43:42;;;;;;;32.60;23.90;;;;;;;16.64;28.37;100171.66;5094851;28;20397;-45
2023/02/08 09:46:31;;;;;;;30.90;24.70;;;;;;;16.10;29.45;100172.59;5094893;28;20401;-45
2023/02/08 09:49:01;;;;;;;38.15;23.23;;;;;;;16.24;30.55;100173.44;5093835;28;20066;-45
2023/02/08 09:52:11;;;;;;;37.13;24.25;;;;;;;17.19;29.52;100166.16;5094115;28;20024;-45
2023/02/08 09:55:06;;;;;;;31.98;23.33;;;;;;;17.40;28.60;100165.06;5094654;28;20405;-45
2023/02/08 09:57:47;;;;;;;33.75;23.45;;;;;;;18.07;28.62;100148.88;5031908;28;20565;-46
2023/02/08 10:00:39;;;;;;;31.45;24.05;;;;;;;18.84;27.14;100156.75;5015255;28;20037;-45
2023/02/08 10:03:29;;;;;;;37.08;24.02;;;;;;;19.18;26.27;100155.41;5031808;28;20120;-45
2023/02/08 10:05:57;;;;;;;34.67;23.95;;;;;;;19.52;25.64;100159.34;5031853;28;20030;-45
2023/02/08 10:08:28;;;;;;;36.55;24.88;;;;;;;19.98;24.95;100157.16;5031638;28;20069;-45
2023/02/08 10:11:42;;;;;;;34.95;23.17;;;;;;;20.06;25.26;100159.50;5031674;28;20040;-45
2023/02/08 10:14:37;;;;;;;31.88;23.90;;;;;;;20.12;25.07;100158.59;5016470;28;20104;-46
2023/02/08 10:17:52;;;;;;;31.80;24.33;;;;;;;20.63;24.26;100171.63;5031745;28;20064;-45
2023/02/08 10:20:53;;;;;;;40.67;22.70;;;;;;;20.80;23.96;100169.88;5014836;28;20037;-45
2023/02/08 10:23:57;;;;;;;37.25;23.38;;;;;;;20.53;23.53;100166.81;5014842;28;20113;-46
2023/02/08 10:26:55;;;;;;;31.90;22.50;;;;;;;20.75;24.44;100167.09;5031402;28;20029;-46
2023/02/08 10:29:53;;;;;;;29.23;23.08;;;;;;;21.05;24.00;100169.66;5014416;28;20045;-45
2023/02/08 10:32:39;;;;;;;26.00;20.92;;;;;;;21.13;23.76;100163.16;5031381;28;20171;-45
2023/02/08 10:35:24;;;;;;;26.27;21.58;;;;;;;21.38;23.48;100156.75;5066024;28;20044;-45
2023/02/08 10:37:52;;;;;;;28.93;22.20;;;;;;;21.17;23.25;100158.97;5092298;28;20027;-45
2023/02/08 10:40:41;;;;;;;27.38;21.83;;;;;;;21.09;23.71;100157.47;5093451;28;20024;-45
2023/02/08 10:43:35;;;;;;;23.65;21.15;;;;;;;20.97;23.18;100158.50;5093477;28;20030;-45
2023/02/08 10:46:23;;;;;;;28.95;20.40;;;;;;;20.97;23.67;100164.69;5092032;28;20028;-45
2023/02/08 10:49:06;;;;;;;26.80;21.60;;;;;;;21.05;23.81;100161.66;5093201;28;20447;-45
2023/02/08 10:51:34;;;;;;;25.75;21.80;;;;;;;20.86;23.68;100158.28;5092042;28;20027;-45
2023/02/08 10:54:01;;;;;;;28.42;21.02;;;;;;;20.64;24.20;100160.69;5092177;28;20089;-45
2023/02/08 10:56:56;;;;;;;41.15;22.35;;;;;;;20.18;24.00;100150.72;5093046;28;20018;-45
2023/02/08 11:00:05;;;;;;;31.00;20.05;;;;;;;19.56;24.55;100149.06;5092531;28;20535;-45
2023/02/08 11:02:34;;;;;;;24.63;20.75;;;;;;;19.01;24.78;100151.69;5091102;28;20028;-45
2023/02/08 11:05:19;;;;;;;24.75;22.25;;;;;;;18.73;25.15;100155.56;5093039;28;20023;-45
2023/02/08 11:07:46;;;;;;;31.60;22.83;;;;;;;18.36;25.95;100140.31;5092998;28;20020;-45
2023/02/08 11:10:19;;;;;;;25.65;21.08;;;;;;;18.22;26.25;100140.63;5092892;28;20059;-45
2023/02/08 11:13:06;;;;;;;27.40;21.63;;;;;;;18.19;26.45;100138.38;5092881;28;20045;-45
2023/02/08 11:15:39;;;;;;;26.02;22.80;;;;;;;18.23;26.68;100131.63;5091441;28;20024;-45
2023/02/08 11:18:26;;;;;;;29.13;22.88;;;;;;;18.35;27.00;100128.06;5091456;28;20410;-46
2023/02/08 11:20:59;;;;;;;30.63;23.20;;;;;;;18.95;26.33;100113.47;5092680;28;20024;-45
2023/02/08 11:23:30;;;;;;;24.55;21.95;;;;;;;19.34;25.50;100109.56;5092812;28;20064;-45
2023/02/08 11:26:37;;;;;;;25.35;21.95;;;;;;;19.61;24.91;100103.91;5091353;28;20028;-45
2023/02/08 11:29:15;;;;;;;23.80;21.33;;;;;;;19.92;25.01;100096.75;5092203;28;20052;-45
2023/02/08 11:32:31;;;;;;;24.63;22.02;;;;;;;20.37;24.79;100090.97;5091094;28;20459;-45
2023/02/08 11:35:28;;;;;;;34.00;21.75;;;;;;;20.87;24.59;100090.53;5091136;28;20034;-46
2023/02/08 11:38:33;;;;;;;22.85;20.45;;;;;;;20.84;23.50;100090.19;5091111;28;20032;-46
2023/02/08 11:41:03;;;;;;;24.10;19.92;;;;;;;20.82;23.43;100090.41;5091097;28;20036;-45
2023/02/08 11:43:34;;;;;;;24.40;20.75;;;;;;;21.03;23.34;100081.00;5091011;28;20055;-45
2023/02/08 11:46:03;;;;;;;22.73;20.35;;;;;;;20.66;23.21;100088.44;5092270;28;20081;-45
2023/02/08 11:48:50;;;;;;;22.20;19.80;;;;;;;20.33;24.09;100079.94;5090887;28;20028;-45
2023/02/08 11:51:31;;;;;;;21.45;19.33;;;;;;;19.82;23.83;100076.00;5091085;28;20039;-45
2023/02/08 11:53:59;;;;;;;24.90;19.75;;;;;;;19.70;24.28;100080.44;5090973;28;20024;-45
2023/02/08 11:56:35;;;;;;;22.63;19.88;;;;;;;19.82;24.42;100073.34;5092152;28;20107;-45
2023/02/08 11:59:18;;;;;;;27.35;20.80;;;;;;;20.46;24.35;100070.88;5090826;28;20024;-45
2023/02/08 12:01:47;;;;;;;25.08;19.48;;;;;;;20.64;23.42;100064.66;5092066;28;20028;-45
2023/02/08 12:04:17;;;;;;;26.92;19.88;;;;;;;20.39;23.57;100066.72;5092099;28;20074;-45
2023/02/08 12:07:41;;;;;;;28.65;19.33;;;;;;;20.11;24.21;100057.53;5092053;28;20020;-46
2023/02/08 12:10:48;;;;;;;23.20;18.63;;;;;;;20.60;23.83;100052.03;5029517;28;20064;-46
2023/02/08 12:13:46;;;;;;;25.25;17.88;;;;;;;19.60;24.50;100043.69;5014614;28;20038;-46
2023/02/08 12:16:50;;;;;;;21.70;16.98;;;;;;;19.69;24.14;100031.66;5029399;28;20041;-45
2023/02/08 12:19:37;;;;;;;21.42;17.05;;;;;;;19.51;24.97;100034.41;5029444;28;20124;-45